Time;durP1;ratioP1;P1;durP2;ratioP2;P2;SDS_P1;SDS_P2;PMS_P1;PMS_P2;Temp;Humidity;BMP_temperature;BMP_pressure;BME280_temperature;BME280_humidity;BME280_pressure;Samples;Min_cycle;Max_cycle;Signal;HPM_P1;HPM_P2
2021/12/15 00:01:28;;;;;;;61.22;24.13;;;8.90;99.90;;;;;;5053265;28;20592;-52
2021/12/15 00:03:54;;;;;;;58.63;26.55;;;8.90;99.90;;;;;;5053083;28;20211;-57
2021/12/15 00:06:20;;;;;;;58.65;27.13;;;8.90;99.90;;;;;;5053374;28;20047;-60
2021/12/15 00:08:50;;;;;;;57.92;27.48;;;8.90;99.90;;;;;;5053280;28;20104;-57
2021/12/15 00:11:17;;;;;;;59.88;27.75;;;8.90;99.90;;;;;;5053281;28;20056;-55
2021/12/15 00:13:45;;;;;;;57.88;26.20;;;8.90;99.90;;;;;;5051602;28;20083;-56
2021/12/15 00:16:13;;;;;;;52.58;25.00;;;9.00;99.90;;;;;;5049873;28;20040;-54
2021/12/15 00:18:42;;;;;;;58.45;26.33;;;9.00;99.90;;;;;;5045214;28;20040;-55
2021/12/15 00:21:11;;;;;;;55.53;24.30;;;9.00;99.90;;;;;;5050065;28;20508;-57
2021/12/15 00:23:38;;;;;;;53.35;25.52;;;9.00;99.90;;;;;;5032949;28;20030;-58
2021/12/15 00:26:04;;;;;;;51.45;24.15;;;9.00;99.90;;;;;;5037501;28;20028;-55
2021/12/15 00:28:30;;;;;;;56.15;24.92;;;9.00;99.90;;;;;;5051957;28;20078;-58
2021/12/15 00:30:56;;;;;;;48.22;23.02;;;9.00;99.90;;;;;;5049322;28;20029;-57
2021/12/15 00:33:22;;;;;;;55.63;24.23;;;9.00;99.90;;;;;;5052460;28;20124;-58
2021/12/15 00:35:48;;;;;;;53.47;24.50;;;9.00;99.90;;;;;;5046814;28;20167;-57
2021/12/15 00:38:14;;;;;;;52.65;24.85;;;9.00;99.90;;;;;;5041337;28;20394;-58
2021/12/15 00:40:39;;;;;;;55.65;24.70;;;9.00;99.90;;;;;;5045092;28;20025;-56
2021/12/15 00:43:06;;;;;;;56.10;24.83;;;8.90;99.90;;;;;;5052226;28;20093;-57
2021/12/15 00:45:31;;;;;;;50.60;24.00;;;9.00;99.90;;;;;;5046889;28;20458;-57
2021/12/15 00:47:58;;;;;;;50.67;23.65;;;9.00;99.90;;;;;;5043927;28;20033;-52
2021/12/15 00:50:28;;;;;;;51.78;22.38;;;8.90;99.90;;;;;;5050133;28;20032;-52
2021/12/15 00:52:55;;;;;;;49.27;22.87;;;9.00;99.90;;;;;;5046677;28;20063;-57
2021/12/15 00:55:24;;;;;;;52.55;22.50;;;9.00;99.90;;;;;;5034056;28;20025;-52
2021/12/15 00:57:49;;;;;;;46.50;22.20;;;9.00;99.90;;;;;;5047350;28;20366;-57
2021/12/15 01:00:20;;;;;;;49.42;22.17;;;9.00;99.90;;;;;;5047972;28;20048;-59
2021/12/15 01:02:47;;;;;;;52.60;23.35;;;9.00;99.90;;;;;;5052590;28;20017;-55
2021/12/15 01:05:14;;;;;;;46.35;22.50;;;9.00;99.90;;;;;;5048645;28;20033;-56
2021/12/15 01:07:41;;;;;;;52.45;24.33;;;9.00;99.90;;;;;;5043661;28;20048;-56
2021/12/15 01:10:11;;;;;;;50.03;22.85;;;9.00;99.90;;;;;;5045058;28;20113;-56
2021/12/15 01:21:02;;;;;;;42.08;21.30;;;9.00;99.90;;;;;;5052034;28;20032;-51
2021/12/15 01:23:29;;;;;;;46.03;21.15;;;9.10;99.90;;;;;;5037323;28;20064;-51
2021/12/15 01:26:00;;;;;;;46.00;20.73;;;9.10;99.90;;;;;;5051883;28;20508;-54
2021/12/15 01:28:26;;;;;;;42.53;20.45;;;9.00;99.90;;;;;;5048067;28;20037;-51
2021/12/15 01:30:54;;;;;;;41.78;21.48;;;9.10;99.90;;;;;;5049325;28;20083;-51
2021/12/15 01:33:21;;;;;;;45.78;20.60;;;9.10;99.90;;;;;;5040756;28;20100;-57
2021/12/15 01:35:49;;;;;;;42.92;20.38;;;9.10;99.90;;;;;;5052111;28;20025;-54
2021/12/15 01:38:18;;;;;;;42.30;20.92;;;9.10;99.90;;;;;;5048124;28;20029;-55
2021/12/15 01:40:45;;;;;;;42.10;20.73;;;9.10;99.90;;;;;;5051722;28;20029;-55
2021/12/15 01:43:19;;;;;;;41.40;20.45;;;9.10;99.90;;;;;;5048524;28;20063;-52
2021/12/15 01:48:34;;;;;;;39.10;20.13;;;9.10;99.90;;;;;;5048562;28;20120;-57
2021/12/15 01:51:02;;;;;;;41.53;21.02;;;9.20;99.90;;;;;;5043981;28;20470;-59
2021/12/15 01:53:29;;;;;;;43.17;22.05;;;9.20;99.90;;;;;;5049867;28;20021;-58
2021/12/15 01:55:55;;;;;;;46.53;21.95;;;9.10;99.90;;;;;;5046002;28;20094;-57
2021/12/15 01:58:21;;;;;;;43.63;20.58;;;9.20;99.90;;;;;;5051650;28;20413;-55
2021/12/15 02:00:56;;;;;;;43.45;22.48;;;9.20;99.90;;;;;;5047523;28;20021;-53
2021/12/15 02:03:22;;;;;;;44.28;20.92;;;9.20;99.90;;;;;;5049687;28;20434;-56
2021/12/15 02:05:48;;;;;;;44.55;20.85;;;9.20;99.90;;;;;;5049911;28;20056;-56
2021/12/15 02:08:14;;;;;;;49.30;24.60;;;9.20;99.90;;;;;;5041979;28;20022;-55
2021/12/15 02:10:42;;;;;;;48.20;22.38;;;9.20;99.90;;;;;;5035032;28;20039;-58
2021/12/15 02:13:13;;;;;;;45.35;22.33;;;9.20;99.90;;;;;;5045541;28;20037;-54
2021/12/15 02:15:42;;;;;;;48.47;21.80;;;9.20;99.90;;;;;;5034919;28;20032;-53
2021/12/15 02:18:10;;;;;;;49.58;22.67;;;9.20;99.90;;;;;;5040533;28;20035;-51
2021/12/15 02:20:39;;;;;;;47.42;23.38;;;9.20;99.90;;;;;;5035099;28;20025;-56
2021/12/15 02:23:11;;;;;;;49.70;23.92;;;9.20;99.90;;;;;;5043392;28;20037;-51
2021/12/15 02:25:37;;;;;;;51.95;24.40;;;9.20;99.90;;;;;;5042959;28;20021;-53
2021/12/15 02:28:06;;;;;;;53.35;24.77;;;9.20;99.90;;;;;;5047395;28;20458;-51
2021/12/15 02:38:18;;;;;;;56.35;26.48;;;9.20;99.90;;;;;;5042033;28;20048;-51
2021/12/15 02:40:45;;;;;;;51.78;25.88;;;9.30;99.90;;;;;;5035286;28;20082;-51
2021/12/15 02:43:12;;;;;;;56.85;26.05;;;9.30;99.90;;;;;;5047553;28;20047;-52
2021/12/15 02:45:38;;;;;;;56.10;26.38;;;9.30;99.90;;;;;;5056084;28;20024;-51
2021/12/15 02:48:04;;;;;;;58.58;25.58;;;9.30;99.90;;;;;;5057453;28;20035;-52
2021/12/15 02:50:31;;;;;;;61.97;28.05;;;9.30;99.90;;;;;;5045522;28;20044;-52
2021/12/15 02:52:58;;;;;;;61.05;27.15;;;9.30;99.90;;;;;;5053125;28;20029;-56
2021/12/15 02:55:24;;;;;;;58.92;26.48;;;9.30;99.90;;;;;;5054958;28;20036;-52
2021/12/15 02:57:51;;;;;;;66.80;27.63;;;9.30;99.90;;;;;;5050101;28;20129;-51
2021/12/15 03:00:24;;;;;;;60.92;26.75;;;9.40;99.90;;;;;;5054520;28;20061;-54
2021/12/15 03:05:27;;;;;;;62.20;26.25;;;9.40;99.90;;;;;;5055263;28;20032;-52
2021/12/15 03:16:00;;;;;;;64.57;27.35;;;9.30;99.90;;;;;;5057336;28;20087;-52
2021/12/15 03:18:29;;;;;;;62.30;27.13;;;9.30;99.90;;;;;;5050792;28;20049;-53
2021/12/15 03:20:59;;;;;;;62.13;25.30;;;9.40;99.90;;;;;;5057082;28;20052;-55
2021/12/15 03:23:25;;;;;;;66.32;28.52;;;9.30;99.90;;;;;;5048158;28;20018;-56
2021/12/15 03:25:52;;;;;;;62.63;27.10;;;9.30;99.90;;;;;;5055846;28;20028;-56
2021/12/15 03:36:41;;;;;;;66.82;28.13;;;9.40;99.90;;;;;;5054809;28;20185;-55
2021/12/15 03:39:11;;;;;;;64.72;27.95;;;9.40;99.90;;;;;;5044753;28;20426;-53
2021/12/15 03:41:37;;;;;;;68.32;27.92;;;9.40;99.90;;;;;;5038958;28;20035;-54
2021/12/15 03:44:05;;;;;;;69.22;29.02;;;9.50;99.90;;;;;;5050499;28;20037;-56
2021/12/15 03:46:31;;;;;;;71.88;27.88;;;9.40;99.90;;;;;;5053209;28;20855;-58
2021/12/15 03:48:57;;;;;;;73.68;28.75;;;9.40;99.90;;;;;;5056767;28;20037;-58
2021/12/15 03:51:23;;;;;;;63.85;25.88;;;9.50;99.90;;;;;;5053420;28;20037;-58
2021/12/15 03:53:49;;;;;;;68.70;29.42;;;9.40;99.90;;;;;;5047085;28;20044;-58
2021/12/15 03:56:16;;;;;;;75.32;26.23;;;9.40;99.90;;;;;;5053794;28;20033;-58
2021/12/15 03:58:43;;;;;;;71.95;26.95;;;9.40;99.90;;;;;;5047917;28;20485;-58
2021/12/15 04:01:19;;;;;;;67.97;27.80;;;9.50;99.90;;;;;;5053516;28;20044;-58
2021/12/15 04:03:49;;;;;;;73.38;28.33;;;9.50;99.90;;;;;;5047905;28;20055;-58
2021/12/15 04:06:28;;;;;;;76.32;27.67;;;9.40;99.90;;;;;;5053316;28;20108;-58
2021/12/15 04:08:54;;;;;;;77.45;28.63;;;9.50;99.90;;;;;;5044904;28;20040;-58
2021/12/15 04:11:23;;;;;;;78.55;28.58;;;9.50;99.90;;;;;;5053510;28;20071;-62
2021/12/15 04:13:49;;;;;;;72.72;26.85;;;9.50;99.90;;;;;;5052187;28;20064;-58
2021/12/15 04:16:42;;;;;;;74.88;27.40;;;9.50;99.90;;;;;;5053507;28;20075;-57
2021/12/15 04:19:12;;;;;;;69.70;26.02;;;9.50;99.90;;;;;;5049093;28;20120;-56
2021/12/15 04:21:38;;;;;;;66.68;25.00;;;9.50;99.90;;;;;;5033278;28;20053;-58
2021/12/15 04:24:06;;;;;;;75.25;27.00;;;9.50;99.90;;;;;;5048332;28;20033;-58
2021/12/15 04:26:31;;;;;;;69.25;25.65;;;9.50;99.90;;;;;;5053072;28;20029;-58
2021/12/15 04:28:58;;;;;;;70.80;27.08;;;9.50;99.90;;;;;;5051282;28;20481;-57
2021/12/15 04:31:27;;;;;;;80.38;28.27;;;9.50;99.90;;;;;;5045099;28;20030;-58
2021/12/15 04:33:55;;;;;;;75.03;28.25;;;9.50;99.90;;;;;;5046959;28;20087;-59
2021/12/15 04:36:25;;;;;;;78.85;29.23;;;9.50;99.90;;;;;;5052936;28;20343;-56
2021/12/15 04:38:53;;;;;;;72.38;26.17;;;9.50;99.90;;;;;;5044347;28;20482;-57
2021/12/15 04:41:20;;;;;;;73.93;27.80;;;9.50;99.90;;;;;;5051424;28;20032;-56
2021/12/15 04:43:56;;;;;;;80.85;28.50;;;9.50;99.90;;;;;;5045881;28;20033;-58
2021/12/15 04:46:26;;;;;;;73.53;27.33;;;9.50;99.90;;;;;;5044182;28;20022;-57
2021/12/15 04:48:52;;;;;;;76.35;27.10;;;9.50;99.90;;;;;;5052526;28;20052;-58
2021/12/15 04:51:18;;;;;;;80.65;28.75;;;9.50;99.90;;;;;;5050252;28;20025;-58
2021/12/15 04:53:45;;;;;;;87.65;30.55;;;9.50;99.90;;;;;;5037457;28;20036;-55
2021/12/15 04:56:12;;;;;;;81.72;28.45;;;9.50;99.90;;;;;;5050236;28;20506;-55
2021/12/15 04:58:38;;;;;;;92.28;29.63;;;9.50;99.90;;;;;;5052453;28;20024;-58
2021/12/15 05:01:08;;;;;;;105.20;31.00;;;9.50;99.90;;;;;;5050933;28;20382;-58
2021/12/15 05:03:35;;;;;;;103.88;30.60;;;9.50;99.90;;;;;;5044884;28;20025;-58
2021/12/15 05:06:01;;;;;;;99.25;29.13;;;9.50;99.90;;;;;;5051671;28;20037;-58
2021/12/15 05:08:27;;;;;;;101.55;29.55;;;9.50;99.90;;;;;;5052076;28;20036;-58
2021/12/15 05:10:55;;;;;;;105.43;28.38;;;9.50;99.90;;;;;;5047463;28;20037;-57
2021/12/15 05:13:22;;;;;;;96.65;29.77;;;9.60;99.90;;;;;;5045374;28;20435;-57
2021/12/15 05:15:48;;;;;;;105.13;29.23;;;9.60;99.90;;;;;;5052076;28;20021;-51
2021/12/15 05:18:14;;;;;;;105.18;30.80;;;9.60;99.90;;;;;;5046039;28;20537;-52
2021/12/15 05:20:45;;;;;;;118.68;32.17;;;9.60;99.90;;;;;;5051017;28;20036;-53
2021/12/15 05:23:13;;;;;;;122.60;34.23;;;9.60;99.90;;;;;;5039071;28;20200;-56
2021/12/15 05:25:39;;;;;;;116.68;33.00;;;9.60;99.90;;;;;;5051977;28;20260;-54
2021/12/15 05:28:05;;;;;;;120.43;31.42;;;9.60;99.90;;;;;;5046240;28;20331;-54
2021/12/15 05:30:31;;;;;;;119.03;34.03;;;9.60;99.90;;;;;;5051675;28;20025;-54
2021/12/15 05:32:56;;;;;;;132.32;36.47;;;9.60;99.90;;;;;;5038008;28;20043;-55
2021/12/15 05:35:24;;;;;;;125.03;34.47;;;9.60;99.90;;;;;;5051601;28;20043;-51
2021/12/15 05:37:52;;;;;;;140.40;37.28;;;9.60;99.90;;;;;;5042070;28;20491;-57
2021/12/15 05:40:18;;;;;;;142.35;37.42;;;9.60;99.90;;;;;;5042708;28;20391;-56
2021/12/15 05:42:44;;;;;;;126.63;33.80;;;9.60;99.90;;;;;;5046756;28;20033;-58
2021/12/15 05:45:11;;;;;;;129.98;35.70;;;9.60;99.90;;;;;;5045340;28;20052;-58
2021/12/15 05:47:36;;;;;;;115.00;36.80;;;9.60;99.90;;;;;;5043207;28;20021;-57
2021/12/15 05:50:08;;;;;;;131.20;37.42;;;9.60;99.90;;;;;;5046119;28;20029;-58
2021/12/15 05:52:34;;;;;;;117.07;35.63;;;9.60;99.90;;;;;;5043157;28;20055;-57
2021/12/15 05:55:00;;;;;;;120.82;36.08;;;9.60;99.90;;;;;;5046726;28;20279;-56
2021/12/15 05:57:26;;;;;;;133.05;38.58;;;9.60;99.90;;;;;;5043467;28;20133;-57
2021/12/15 05:59:52;;;;;;;139.15;38.45;;;9.70;99.90;;;;;;5049808;28;20029;-58
2021/12/15 06:02:18;;;;;;;122.53;39.05;;;9.70;99.90;;;;;;5043078;28;20083;-58
2021/12/15 06:04:43;;;;;;;127.20;38.35;;;9.70;99.90;;;;;;5051549;28;20032;-59
2021/12/15 06:07:09;;;;;;;124.82;37.75;;;9.70;99.90;;;;;;5044421;28;20025;-53
2021/12/15 06:09:35;;;;;;;126.38;36.65;;;9.70;99.90;;;;;;5046154;28;20036;-51
2021/12/15 06:12:02;;;;;;;127.85;39.25;;;9.70;99.90;;;;;;5044722;28;20030;-56
2021/12/15 06:14:28;;;;;;;124.90;40.45;;;9.70;99.90;;;;;;5049773;28;20501;-57
2021/12/15 06:17:02;;;;;;;139.82;39.90;;;9.70;99.90;;;;;;5046417;28;20139;-55
2021/12/15 06:19:28;;;;;;;125.72;41.35;;;9.70;99.90;;;;;;5049052;28;20021;-57
2021/12/15 06:21:53;;;;;;;119.45;39.42;;;9.70;99.90;;;;;;5046144;28;20033;-57
2021/12/15 06:24:19;;;;;;;121.90;40.38;;;9.80;99.90;;;;;;5040771;28;20037;-56
2021/12/15 06:26:45;;;;;;;116.13;39.83;;;9.80;99.90;;;;;;5048411;28;20039;-57
2021/12/15 06:29:11;;;;;;;125.80;39.72;;;9.80;99.90;;;;;;5051037;28;20513;-56
2021/12/15 06:31:38;;;;;;;123.03;39.10;;;9.80;99.90;;;;;;5039331;28;20060;-57
2021/12/15 06:34:05;;;;;;;125.32;40.45;;;9.80;99.90;;;;;;5046416;28;20189;-57
2021/12/15 06:36:32;;;;;;;122.40;39.53;;;9.80;99.90;;;;;;5042545;28;20532;-56
2021/12/15 06:38:57;;;;;;;112.85;38.50;;;9.80;99.90;;;;;;5036905;28;20517;-58
2021/12/15 06:41:24;;;;;;;114.47;39.55;;;9.80;99.90;;;;;;5042351;28;20160;-57
2021/12/15 06:43:55;;;;;;;132.70;39.22;;;9.80;99.90;;;;;;5042814;28;20522;-55
2021/12/15 06:59:48;;;;;;;114.03;38.03;;;9.90;99.90;;;;;;5042509;28;20082;-58
2021/12/15 07:02:14;;;;;;;109.85;38.35;;;9.90;99.90;;;;;;5029460;28;20028;-52
2021/12/15 07:04:40;;;;;;;104.60;37.30;;;9.90;99.90;;;;;;5018875;28;21257;-52
2021/12/15 07:07:06;;;;;;;114.20;39.00;;;9.90;99.90;;;;;;5018390;28;20033;-53
2021/12/15 07:09:33;;;;;;;109.18;37.67;;;9.90;99.90;;;;;;5020283;28;20044;-58
2021/12/15 07:12:00;;;;;;;104.65;36.72;;;10.00;99.90;;;;;;5020603;28;20041;-52
2021/12/15 07:14:26;;;;;;;98.30;36.70;;;9.90;99.90;;;;;;5018053;28;20089;-56
2021/12/15 07:16:55;;;;;;;100.70;38.42;;;10.00;99.90;;;;;;5019045;28;20033;-54
2021/12/15 07:22:15;;;;;;;102.43;36.75;;;10.00;99.90;;;;;;5048384;28;20375;-52
2021/12/15 07:24:41;;;;;;;98.85;36.60;;;10.00;99.90;;;;;;5030908;28;20579;-55
2021/12/15 07:27:07;;;;;;;103.35;38.75;;;10.00;99.90;;;;;;5028629;28;20084;-55
2021/12/15 07:29:34;;;;;;;95.78;36.78;;;10.00;99.90;;;;;;5028266;28;20033;-56
2021/12/15 07:32:02;;;;;;;96.38;36.00;;;10.00;99.90;;;;;;5045948;28;20463;-55
2021/12/15 07:34:27;;;;;;;101.82;37.03;;;10.00;99.90;;;;;;5050538;28;20377;-55
2021/12/15 07:36:53;;;;;;;85.95;34.53;;;10.10;99.90;;;;;;5038693;28;20029;-53
2021/12/15 07:39:21;;;;;;;85.97;33.92;;;10.10;99.90;;;;;;5049446;28;20037;-51
2021/12/15 07:42:02;;;;;;;88.22;34.80;;;10.10;99.90;;;;;;5043317;28;20083;-58
2021/12/15 07:44:28;;;;;;;86.50;35.03;;;10.10;99.90;;;;;;5044977;28;20060;-50
2021/12/15 07:46:54;;;;;;;78.35;33.85;;;10.00;99.90;;;;;;5035076;28;20799;-53
2021/12/15 07:49:22;;;;;;;80.15;34.05;;;10.10;99.90;;;;;;5021018;28;20526;-54
2021/12/15 07:51:52;;;;;;;73.80;32.30;;;10.10;99.90;;;;;;5029423;28;20465;-52
2021/12/15 07:54:19;;;;;;;71.38;31.85;;;10.10;99.90;;;;;;5026824;28;21103;-52
2021/12/15 07:56:45;;;;;;;71.72;31.70;;;10.10;99.90;;;;;;5032419;28;20127;-56
2021/12/15 07:59:11;;;;;;;67.78;29.98;;;10.10;99.90;;;;;;5024623;28;20033;-58
2021/12/15 08:01:37;;;;;;;73.22;31.60;;;10.20;99.90;;;;;;5026476;28;20157;-56
2021/12/15 08:04:03;;;;;;;77.20;33.05;;;10.20;99.90;;;;;;5021328;28;20033;-58
2021/12/15 08:06:29;;;;;;;76.70;29.40;;;10.10;99.90;;;;;;5019594;28;20025;-60
2021/12/15 08:08:56;;;;;;;72.10;31.73;;;10.10;99.90;;;;;;5021897;28;20040;-59
2021/12/15 08:11:22;;;;;;;67.07;30.27;;;10.10;99.90;;;;;;5032835;28;20496;-59
2021/12/15 08:13:48;;;;;;;74.03;31.58;;;10.10;99.90;;;;;;5022165;28;20351;-57
2021/12/15 08:16:14;;;;;;;74.47;32.00;;;10.10;99.90;;;;;;5020565;28;20038;-59
2021/12/15 08:18:41;;;;;;;63.40;29.95;;;10.20;99.90;;;;;;5021363;28;21269;-57
2021/12/15 08:21:09;;;;;;;66.85;31.65;;;10.10;99.90;;;;;;5023634;28;20025;-58
2021/12/15 08:23:35;;;;;;;62.45;30.15;;;10.10;99.90;;;;;;5023301;28;20025;-59
2021/12/15 08:26:01;;;;;;;58.97;30.10;;;10.20;99.90;;;;;;5033516;28;20033;-59
2021/12/15 08:28:26;;;;;;;59.80;27.75;;;10.20;99.90;;;;;;5031992;28;20487;-59
2021/12/15 08:30:54;;;;;;;61.85;29.13;;;10.20;99.90;;;;;;5023499;28;20037;-57
2021/12/15 08:33:23;;;;;;;59.97;28.65;;;10.20;99.90;;;;;;5024497;28;21327;-63
2021/12/15 08:35:58;;;;;;;63.60;30.42;;;10.20;99.90;;;;;;5026571;28;20263;-61
2021/12/15 08:38:26;;;;;;;60.88;30.27;;;10.20;99.90;;;;;;5026152;28;20041;-53
2021/12/15 08:40:53;;;;;;;66.22;31.02;;;10.20;99.90;;;;;;5026761;28;20122;-59
2021/12/15 08:43:20;;;;;;;59.85;29.27;;;10.20;99.90;;;;;;5019604;28;20047;-59
2021/12/15 08:46:04;;;;;;;57.90;30.38;;;10.20;99.90;;;;;;5021181;28;20032;-58
2021/12/15 08:48:31;;;;;;;60.47;31.75;;;10.20;99.90;;;;;;5025655;28;20436;-59
2021/12/15 08:50:58;;;;;;;58.72;28.83;;;10.30;99.90;;;;;;5029157;28;20025;-58
2021/12/15 08:53:24;;;;;;;61.40;29.95;;;10.20;99.90;;;;;;5023618;28;20026;-60
2021/12/15 08:55:50;;;;;;;59.92;29.95;;;10.20;99.90;;;;;;5031397;28;20036;-61
2021/12/15 08:58:18;;;;;;;58.80;28.45;;;10.20;99.90;;;;;;5034577;28;20111;-61
2021/12/15 09:00:47;;;;;;;61.40;29.88;;;10.20;99.90;;;;;;5042913;28;20029;-60
2021/12/15 09:03:14;;;;;;;57.47;28.38;;;10.30;99.90;;;;;;5021723;28;20051;-59
2021/12/15 09:05:41;;;;;;;64.70;29.83;;;10.30;99.90;;;;;;5019630;28;20029;-57
2021/12/15 09:08:08;;;;;;;61.45;29.77;;;10.30;99.90;;;;;;5022865;28;20052;-58
2021/12/15 09:10:36;;;;;;;59.53;30.00;;;10.30;99.90;;;;;;5024228;28;20029;-58
2021/12/15 09:13:03;;;;;;;62.97;30.65;;;10.30;99.90;;;;;;5023967;28;20041;-58
2021/12/15 09:15:30;;;;;;;57.85;28.58;;;10.30;99.90;;;;;;5023323;28;20236;-55
2021/12/15 09:17:56;;;;;;;61.78;30.73;;;10.30;99.90;;;;;;5023497;28;20119;-62
2021/12/15 09:20:27;;;;;;;59.92;30.17;;;10.30;99.90;;;;;;5023751;28;20066;-59
2021/12/15 09:22:54;;;;;;;60.58;29.27;;;10.30;99.90;;;;;;5023101;28;20459;-59
2021/12/15 09:25:20;;;;;;;57.15;30.13;;;10.30;99.90;;;;;;5028684;28;20031;-60
2021/12/15 09:27:47;;;;;;;57.03;29.58;;;10.30;99.90;;;;;;5032560;28;20021;-58
2021/12/15 09:30:18;;;;;;;59.17;29.65;;;10.30;99.90;;;;;;5029226;28;20032;-61
2021/12/15 09:32:44;;;;;;;62.28;30.90;;;10.30;99.90;;;;;;5035759;28;20162;-58
2021/12/15 09:35:12;;;;;;;61.03;29.60;;;10.30;99.90;;;;;;5045961;28;20052;-59
2021/12/15 09:37:39;;;;;;;54.40;28.15;;;10.30;99.90;;;;;;5026731;28;20025;-59
2021/12/15 09:40:07;;;;;;;60.80;28.75;;;10.30;99.90;;;;;;5025370;28;20498;-60
2021/12/15 09:42:37;;;;;;;58.65;29.80;;;10.30;99.90;;;;;;5022909;28;20064;-60
2021/12/15 09:45:22;;;;;;;65.20;31.17;;;10.30;99.90;;;;;;5034967;28;20041;-59
2021/12/15 10:04:34;;;;;;;65.80;32.90;;;10.30;99.90;;;;;;5044936;28;20563;-59
2021/12/15 10:17:52;;;;;;;65.88;30.73;;;10.40;99.90;;;;;;5041474;28;20079;-58
2021/12/15 10:20:22;;;;;;;61.80;31.40;;;10.40;99.90;;;;;;5038110;28;20060;-56
2021/12/15 10:22:52;;;;;;;63.97;30.77;;;10.40;99.90;;;;;;5043781;28;20025;-52
2021/12/15 10:25:24;;;;;;;72.07;32.55;;;10.40;99.90;;;;;;5038178;28;20037;-53
2021/12/15 10:28:03;;;;;;;59.47;30.17;;;10.40;99.90;;;;;;5034621;28;20039;-54
2021/12/15 10:30:35;;;;;;;71.30;31.85;;;10.40;99.90;;;;;;5041640;28;20038;-54
2021/12/15 10:33:08;;;;;;;72.30;34.60;;;10.40;99.90;;;;;;5047529;28;20108;-52
2021/12/15 10:35:42;;;;;;;67.80;33.92;;;10.40;99.90;;;;;;5045486;28;20131;-56
2021/12/15 10:38:28;;;;;;;68.75;34.83;;;10.40;99.90;;;;;;5041213;28;20033;-55
2021/12/15 10:41:08;;;;;;;68.95;34.35;;;10.40;99.90;;;;;;5041468;28;20101;-53
2021/12/15 10:43:56;;;;;;;69.35;34.35;;;10.40;99.90;;;;;;5039747;28;20033;-59
2021/12/15 10:46:27;;;;;;;67.78;32.25;;;10.50;99.90;;;;;;5038993;28;20051;-57
2021/12/15 10:49:15;;;;;;;68.72;32.17;;;10.60;99.90;;;;;;5037874;28;20022;-57
2021/12/15 10:51:47;;;;;;;72.32;34.10;;;10.50;99.90;;;;;;5037951;28;20410;-55
2021/12/15 10:54:19;;;;;;;72.13;33.83;;;10.50;99.90;;;;;;5044334;28;20087;-56
2021/12/15 10:56:54;;;;;;;80.38;35.78;;;10.60;99.90;;;;;;5046583;28;20025;-60
2021/12/15 10:59:21;;;;;;;70.70;33.30;;;10.50;99.90;;;;;;5043345;28;20310;-59
2021/12/15 11:01:49;;;;;;;65.93;33.10;;;10.60;99.90;;;;;;5046920;28;20120;-53
2021/12/15 11:04:27;;;;;;;66.45;33.55;;;10.50;99.90;;;;;;5047948;28;20036;-58
2021/12/15 11:07:06;;;;;;;72.93;34.63;;;10.50;99.90;;;;;;5044246;28;20021;-56
2021/12/15 11:09:39;;;;;;;72.28;33.22;;;10.50;99.90;;;;;;5050033;28;20339;-59
2021/12/15 11:12:10;;;;;;;70.85;34.53;;;10.50;99.90;;;;;;5051044;28;20048;-57
2021/12/15 11:14:40;;;;;;;70.22;34.47;;;10.50;99.90;;;;;;5039394;28;20033;-57
2021/12/15 11:17:12;;;;;;;73.53;34.05;;;10.50;99.90;;;;;;5041229;28;20040;-53
2021/12/15 11:19:54;;;;;;;72.13;33.30;;;10.50;99.90;;;;;;5038579;28;20560;-53
2021/12/15 11:22:40;;;;;;;69.05;33.08;;;10.50;99.90;;;;;;5041939;28;20487;-52
2021/12/15 11:25:29;;;;;;;72.10;32.72;;;10.50;99.90;;;;;;5044066;28;20021;-56
2021/12/15 11:28:01;;;;;;;69.47;33.42;;;10.50;99.90;;;;;;5032094;28;20362;-53
2021/12/15 11:30:36;;;;;;;;;;;10.50;99.90;;;;;;5048822;28;20025;-58
2021/12/15 11:33:10;;;;;;;70.88;32.80;;;10.50;99.90;;;;;;5039877;28;20000;-56
2021/12/15 11:35:41;;;;;;;69.85;32.88;;;10.50;99.90;;;;;;5048582;28;21601;-55
2021/12/15 11:38:13;;;;;;;67.78;32.28;;;10.50;99.90;;;;;;5040760;28;20104;-53
2021/12/15 11:41:11;;;;;;;73.75;34.38;;;10.50;99.90;;;;;;5040095;28;20490;-56
2021/12/15 11:43:39;;;;;;;66.05;31.20;;;10.50;99.90;;;;;;5025146;28;20375;-53
2021/12/15 11:46:38;;;;;;;70.70;32.78;;;10.50;99.90;;;;;;5048361;28;20025;-56
2021/12/15 11:49:05;;;;;;;76.13;32.75;;;10.60;99.90;;;;;;5039175;28;20030;-55
2021/12/15 11:51:54;;;;;;;69.93;32.45;;;10.60;99.90;;;;;;5046413;28;20517;-54
2021/12/15 11:54:25;;;;;;;69.07;32.85;;;10.60;99.90;;;;;;5052848;28;20037;-57
2021/12/15 11:57:00;;;;;;;66.83;31.33;;;10.60;99.90;;;;;;5050908;28;20025;-58
2021/12/15 11:59:29;;;;;;;66.68;30.98;;;10.60;99.90;;;;;;5051784;28;20063;-57
2021/12/15 12:02:06;;;;;;;67.05;33.70;;;10.60;99.90;;;;;;5051931;28;20029;-57
2021/12/15 12:04:37;;;;;;;65.50;33.50;;;10.70;99.90;;;;;;5033945;28;20109;-58
2021/12/15 12:07:38;;;;;;;63.72;31.30;;;10.70;99.90;;;;;;5032353;28;20053;-58
2021/12/15 12:10:30;;;;;;;66.13;32.05;;;10.70;99.90;;;;;;5032488;28;20356;-58
2021/12/15 12:13:05;;;;;;;68.80;32.92;;;10.70;99.90;;;;;;5031450;28;20343;-58
2021/12/15 12:15:33;;;;;;;71.88;31.00;;;10.70;99.90;;;;;;5031325;28;20034;-58
2021/12/15 12:18:04;;;;;;;74.90;31.15;;;10.70;99.90;;;;;;5037157;28;20017;-57
2021/12/15 12:21:10;;;;;;;64.32;31.35;;;10.70;99.90;;;;;;5051421;28;20039;-58
2021/12/15 12:23:38;;;;;;;66.97;32.83;;;10.70;99.90;;;;;;5046128;28;20037;-56
2021/12/15 12:26:07;;;;;;;65.18;30.60;;;10.70;99.90;;;;;;5051586;28;20042;-58
2021/12/15 12:28:37;;;;;;;68.80;30.23;;;10.70;99.90;;;;;;5051169;28;20498;-56
2021/12/15 12:31:09;;;;;;;65.03;31.90;;;10.70;99.90;;;;;;5048805;28;20029;-57
2021/12/15 12:33:35;;;;;;;68.03;32.05;;;10.80;99.90;;;;;;5038452;28;20171;-57
2021/12/15 12:36:15;;;;;;;70.43;33.17;;;10.80;99.90;;;;;;5037995;28;20138;-56
2021/12/15 12:38:53;;;;;;;74.80;35.15;;;10.80;99.90;;;;;;5043761;28;20439;-57
2021/12/15 12:41:24;;;;;;;72.18;33.15;;;10.80;99.90;;;;;;5040615;28;20040;-56
2021/12/15 12:43:53;;;;;;;68.55;32.33;;;10.80;99.90;;;;;;5051008;28;20124;-57
2021/12/15 12:46:36;;;;;;;69.85;32.15;;;10.80;99.90;;;;;;5050216;28;20029;-57
2021/12/15 12:50:20;;;;;;;70.22;31.27;;;10.80;99.90;;;;;;5050998;28;20029;-57
2021/12/15 12:57:58;;;;;;;73.00;31.75;;;10.80;99.90;;;;;;5045763;28;20475;-56
2021/12/15 13:00:44;;;;;;;62.78;28.80;;;10.70;99.90;;;;;;5030204;28;20036;-57
2021/12/15 13:03:19;;;;;;;63.50;29.65;;;10.70;99.90;;;;;;5040657;28;20041;-57
2021/12/15 13:06:07;;;;;;;61.55;28.65;;;10.70;99.90;;;;;;5041876;28;20390;-57
2021/12/15 13:08:54;;;;;;;64.63;29.98;;;10.70;99.90;;;;;;5050480;28;20013;-57
2021/12/15 13:11:20;;;;;;;61.85;28.33;;;10.70;99.90;;;;;;5049839;28;20029;-56
2021/12/15 13:13:51;;;;;;;61.97;27.90;;;10.70;99.90;;;;;;5049871;28;20021;-57
2021/12/15 13:16:36;;;;;;;61.00;29.17;;;10.70;99.90;;;;;;5045044;28;20410;-55
2021/12/15 13:19:11;;;;;;;59.92;28.10;;;10.70;99.90;;;;;;5048139;28;20425;-56
2021/12/15 13:22:16;;;;;;;61.83;28.38;;;10.70;99.90;;;;;;5037714;28;20166;-53
2021/12/15 13:30:40;;;;;;;68.88;31.55;;;10.70;99.90;;;;;;5049979;28;20099;-58
2021/12/15 13:33:14;;;;;;;64.80;28.08;;;10.60;99.90;;;;;;5048516;28;20048;-54
2021/12/15 13:35:54;;;;;;;58.70;28.98;;;10.60;99.90;;;;;;5030345;28;20033;-51
2021/12/15 13:38:30;;;;;;;62.53;30.23;;;10.70;99.90;;;;;;5047874;28;20028;-53
2021/12/15 13:41:38;;;;;;;66.00;27.95;;;10.60;99.90;;;;;;5047194;28;20029;-53
2021/12/15 13:44:24;;;;;;;57.63;25.98;;;10.70;99.90;;;;;;5045342;28;20025;-53
2021/12/15 13:46:55;;;;;;;59.40;27.88;;;10.60;99.90;;;;;;5047072;28;20479;-55
2021/12/15 13:49:46;;;;;;;58.25;27.60;;;10.60;99.90;;;;;;5049880;28;20077;-55
2021/12/15 13:52:40;;;;;;;61.75;29.20;;;10.60;99.90;;;;;;5048110;28;20063;-55
2021/12/15 13:55:27;;;;;;;61.65;27.45;;;10.60;99.90;;;;;;5048233;28;20039;-56
2021/12/15 13:58:17;;;;;;;59.40;28.02;;;10.60;99.90;;;;;;5048607;28;20090;-58
2021/12/15 14:00:48;;;;;;;57.67;29.15;;;10.60;99.90;;;;;;5045554;28;20029;-57
2021/12/15 14:03:17;;;;;;;62.90;29.50;;;10.50;99.90;;;;;;5048926;28;20025;-54
2021/12/15 14:05:49;;;;;;;59.17;29.08;;;10.50;99.90;;;;;;5043300;28;20029;-57
2021/12/15 14:08:18;;;;;;;60.03;27.02;;;10.50;99.90;;;;;;5050149;28;20024;-55
2021/12/15 14:10:58;;;;;;;56.88;27.95;;;10.50;99.90;;;;;;5047492;28;20065;-55
2021/12/15 14:13:44;;;;;;;56.53;26.00;;;10.50;99.90;;;;;;5046320;28;20021;-53
2021/12/15 14:16:10;;;;;;;56.70;27.75;;;10.50;99.90;;;;;;5042138;28;20128;-54
2021/12/15 14:18:36;;;;;;;54.30;25.50;;;10.50;99.90;;;;;;5048625;28;20075;-56
2021/12/15 14:21:16;;;;;;;51.10;25.10;;;10.50;99.90;;;;;;5049451;28;20394;-58